sensor_id;sensor_type;location;lat;lon;timestamp;pressure;altitude;pressure_sealevel;temperature;humidity
75891;BME280;64571;47.512;19.054;2023-02-18T00:01:41;100699.47;;;12.90;64.26
75891;BME280;64571;47.512;19.054;2023-02-18T00:04:43;100682.72;;;12.90;64.33
75891;BME280;64571;47.512;19.054;2023-02-18T00:07:46;100696.59;;;12.96;64.53
75891;BME280;64571;47.512;19.054;2023-02-18T00:10:49;100673.66;;;12.99;64.22
75891;BME280;64571;47.512;19.054;2023-02-18T00:13:53;100670.16;;;12.93;64.63
75891;BME280;64571;47.512;19.054;2023-02-18T00:16:56;100683.06;;;13.03;64.73
75891;BME280;64571;47.512;19.054;2023-02-18T00:19:58;100670.16;;;13.07;64.67
75891;BME280;64571;47.512;19.054;2023-02-18T00:23:02;100670.44;;;13.24;64.18
75891;BME280;64571;47.512;19.054;2023-02-18T00:26:10;100670.00;;;13.31;64.11
75891;BME280;64571;47.512;19.054;2023-02-18T00:29:14;100664.84;;;13.24;64.35
75891;BME280;64571;47.512;19.054;2023-02-18T00:32:17;100651.13;;;13.09;64.49
75891;BME280;64571;47.512;19.054;2023-02-18T00:35:19;100670.59;;;13.28;64.42
75891;BME280;64571;47.512;19.054;2023-02-18T00:38:22;100671.25;;;13.38;64.07
75891;BME280;64571;47.512;19.054;2023-02-18T00:41:26;100667.53;;;13.43;63.97
75891;BME280;64571;47.512;19.054;2023-02-18T00:44:28;100646.63;;;13.27;64.18
75891;BME280;64571;47.512;19.054;2023-02-18T00:47:31;100659.75;;;13.40;64.06
75891;BME280;64571;47.512;19.054;2023-02-18T00:50:34;100657.41;;;13.47;63.90
75891;BME280;64571;47.512;19.054;2023-02-18T00:53:38;100669.91;;;13.36;64.27
75891;BME280;64571;47.512;19.054;2023-02-18T00:56:41;100662.97;;;13.33;64.40
75891;BME280;64571;47.512;19.054;2023-02-18T00:59:44;100653.13;;;13.36;64.32
75891;BME280;64571;47.512;19.054;2023-02-18T01:02:46;100635.06;;;13.33;64.21
75891;BME280;64571;47.512;19.054;2023-02-18T01:05:50;100636.19;;;13.32;64.16
75891;BME280;64571;47.512;19.054;2023-02-18T01:08:52;100623.34;;;13.59;63.34
75891;BME280;64571;47.512;19.054;2023-02-18T01:11:56;100634.38;;;13.64;63.41
75891;BME280;64571;47.512;19.054;2023-02-18T01:14:58;100632.53;;;13.59;63.43
75891;BME280;64571;47.512;19.054;2023-02-18T01:18:01;100638.62;;;13.75;62.92
75891;BME280;64571;47.512;19.054;2023-02-18T01:21:05;100647.63;;;13.72;63.06
75891;BME280;64571;47.512;19.054;2023-02-18T01:24:10;100624.88;;;13.79;62.43
75891;BME280;64571;47.512;19.054;2023-02-18T01:27:12;100631.78;;;13.81;62.69
75891;BME280;64571;47.512;19.054;2023-02-18T01:30:17;100631.97;;;13.85;62.53
75891;BME280;64571;47.512;19.054;2023-02-18T01:33:20;100629.50;;;13.83;62.50
75891;BME280;64571;47.512;19.054;2023-02-18T01:36:23;100625.59;;;13.71;62.59
75891;BME280;64571;47.512;19.054;2023-02-18T01:39:30;100628.34;;;13.84;62.41
75891;BME280;64571;47.512;19.054;2023-02-18T01:42:33;100614.38;;;13.84;62.13
75891;BME280;64571;47.512;19.054;2023-02-18T01:45:39;100630.78;;;14.00;61.92
75891;BME280;64571;47.512;19.054;2023-02-18T01:48:53;100620.37;;;13.91;62.22
75891;BME280;64571;47.512;19.054;2023-02-18T01:52:01;100621.59;;;13.99;61.96
75891;BME280;64571;47.512;19.054;2023-02-18T01:55:05;100636.22;;;13.96;61.97
75891;BME280;64571;47.512;19.054;2023-02-18T01:58:07;100636.16;;;14.10;61.49
75891;BME280;64571;47.512;19.054;2023-02-18T02:01:11;100631.62;;;14.00;61.55
75891;BME280;64571;47.512;19.054;2023-02-18T02:04:15;100631.47;;;14.19;60.98
75891;BME280;64571;47.512;19.054;2023-02-18T02:07:20;100630.56;;;14.10;61.29
75891;BME280;64571;47.512;19.054;2023-02-18T02:10:27;100621.78;;;14.03;61.38
75891;BME280;64571;47.512;19.054;2023-02-18T02:14:06;100614.66;;;13.97;61.29
75891;BME280;64571;47.512;19.054;2023-02-18T02:40:52;100614.94;;;14.31;59.98
75891;BME280;64571;47.512;19.054;2023-02-18T02:51:04;100614.69;;;14.41;59.52
75891;BME280;64571;47.512;19.054;2023-02-18T02:54:19;100620.41;;;14.36;59.67
75891;BME280;64571;47.512;19.054;2023-02-18T03:07:58;100640.87;;;14.23;60.32
75891;BME280;64571;47.512;19.054;2023-02-18T03:14:21;100623.31;;;14.09;60.80
75891;BME280;64571;47.512;19.054;2023-02-18T03:17:29;100611.97;;;14.05;60.89
75891;BME280;64571;47.512;19.054;2023-02-18T03:20:38;100636.72;;;14.21;60.29
75891;BME280;64571;47.512;19.054;2023-02-18T03:24:13;100650.84;;;14.15;60.53
75891;BME280;64571;47.512;19.054;2023-02-18T03:27:24;100631.81;;;14.04;60.62
75891;BME280;64571;47.512;19.054;2023-02-18T03:30:32;100651.34;;;14.17;60.42
75891;BME280;64571;47.512;19.054;2023-02-18T03:33:42;100642.78;;;14.14;60.58
75891;BME280;64571;47.512;19.054;2023-02-18T03:36:46;100641.09;;;14.13;60.58
75891;BME280;64571;47.512;19.054;2023-02-18T03:39:52;100637.69;;;14.16;60.53
75891;BME280;64571;47.512;19.054;2023-02-18T03:42:57;100650.63;;;14.12;60.74
75891;BME280;64571;47.512;19.054;2023-02-18T03:46:01;100634.34;;;13.91;61.09
75891;BME280;64571;47.512;19.054;2023-02-18T03:49:04;100641.78;;;13.96;61.37
75891;BME280;64571;47.512;19.054;2023-02-18T03:52:07;100639.50;;;13.98;61.36
75891;BME280;64571;47.512;19.054;2023-02-18T03:55:10;100642.50;;;14.02;61.27
75891;BME280;64571;47.512;19.054;2023-02-18T03:58:12;100642.91;;;13.95;61.57
75891;BME280;64571;47.512;19.054;2023-02-18T04:01:15;100647.25;;;14.01;61.33
75891;BME280;64571;47.512;19.054;2023-02-18T04:04:18;100654.75;;;13.92;61.60
75891;BME280;64571;47.512;19.054;2023-02-18T04:07:20;100639.69;;;14.02;61.16
75891;BME280;64571;47.512;19.054;2023-02-18T04:10:23;100657.78;;;14.04;61.22
75891;BME280;64571;47.512;19.054;2023-02-18T04:13:26;100653.47;;;13.98;61.41
75891;BME280;64571;47.512;19.054;2023-02-18T04:16:29;100639.09;;;13.91;61.76
75891;BME280;64571;47.512;19.054;2023-02-18T04:19:31;100645.31;;;13.88;61.94
75891;BME280;64571;47.512;19.054;2023-02-18T04:22:34;100639.09;;;13.91;61.86
75891;BME280;64571;47.512;19.054;2023-02-18T04:25:36;100646.84;;;13.94;61.85
75891;BME280;64571;47.512;19.054;2023-02-18T04:28:39;100650.09;;;13.87;62.12
75891;BME280;64571;47.512;19.054;2023-02-18T04:31:41;100648.50;;;13.95;61.94
75891;BME280;64571;47.512;19.054;2023-02-18T04:34:44;100659.69;;;13.95;62.04
75891;BME280;64571;47.512;19.054;2023-02-18T04:37:47;100626.94;;;13.73;62.51
75891;BME280;64571;47.512;19.054;2023-02-18T04:40:49;100644.09;;;13.80;62.69
75891;BME280;64571;47.512;19.054;2023-02-18T04:43:52;100647.84;;;13.76;62.84
75891;BME280;64571;47.512;19.054;2023-02-18T04:46:54;100632.12;;;13.66;63.03
75891;BME280;64571;47.512;19.054;2023-02-18T04:49:57;100664.09;;;13.74;62.88
75891;BME280;64571;47.512;19.054;2023-02-18T04:53:00;100674.50;;;13.82;62.62
75891;BME280;64571;47.512;19.054;2023-02-18T04:56:02;100670.38;;;13.79;62.70
75891;BME280;64571;47.512;19.054;2023-02-18T04:59:05;100661.19;;;13.65;62.89
75891;BME280;64571;47.512;19.054;2023-02-18T05:02:07;100696.16;;;13.76;63.03
75891;BME280;64571;47.512;19.054;2023-02-18T05:05:11;100696.06;;;13.67;63.60
75891;BME280;64571;47.512;19.054;2023-02-18T05:08:13;100687.78;;;13.49;64.25
75891;BME280;64571;47.512;19.054;2023-02-18T05:11:17;100697.09;;;13.44;64.98
75891;BME280;64571;47.512;19.054;2023-02-18T05:14:20;100682.69;;;13.23;65.57
75891;BME280;64571;47.512;19.054;2023-02-18T05:17:22;100721.16;;;13.26;66.42
75891;BME280;64571;47.512;19.054;2023-02-18T05:20:25;100711.50;;;13.18;66.77
75891;BME280;64571;47.512;19.054;2023-02-18T05:23:28;100718.34;;;13.12;67.25
75891;BME280;64571;47.512;19.054;2023-02-18T05:26:30;100699.81;;;13.03;67.27
75891;BME280;64571;47.512;19.054;2023-02-18T05:29:33;100728.44;;;13.08;67.47
75891;BME280;64571;47.512;19.054;2023-02-18T05:32:35;100720.50;;;13.02;67.75
75891;BME280;64571;47.512;19.054;2023-02-18T05:35:38;100714.16;;;12.96;67.86
75891;BME280;64571;47.512;19.054;2023-02-18T05:38:40;100736.69;;;13.00;68.03
75891;BME280;64571;47.512;19.054;2023-02-18T05:41:43;100734.72;;;13.00;68.17
75891;BME280;64571;47.512;19.054;2023-02-18T05:44:45;100736.69;;;13.00;68.19
75891;BME280;64571;47.512;19.054;2023-02-18T05:47:48;100742.06;;;12.96;68.40
75891;BME280;64571;47.512;19.054;2023-02-18T05:50:53;100747.84;;;13.00;68.12
75891;BME280;64571;47.512;19.054;2023-02-18T05:53:55;100752.28;;;13.01;68.05
75891;BME280;64571;47.512;19.054;2023-02-18T05:56:58;100754.56;;;12.99;67.93
75891;BME280;64571;47.512;19.054;2023-02-18T06:00:01;100759.34;;;12.98;67.84
75891;BME280;64571;47.512;19.054;2023-02-18T06:03:05;100763.78;;;12.99;67.53
75891;BME280;64571;47.512;19.054;2023-02-18T06:06:08;100764.38;;;12.96;67.68
75891;BME280;64571;47.512;19.054;2023-02-18T06:09:11;100751.44;;;12.86;67.58
75891;BME280;64571;47.512;19.054;2023-02-18T06:12:14;100756.72;;;12.88;67.53
75891;BME280;64571;47.512;19.054;2023-02-18T06:15:16;100760.72;;;12.82;67.07
75891;BME280;64571;47.512;19.054;2023-02-18T06:18:20;100766.59;;;12.80;66.96
75891;BME280;64571;47.512;19.054;2023-02-18T06:21:22;100786.03;;;12.85;67.06
75891;BME280;64571;47.512;19.054;2023-02-18T06:24:25;100793.91;;;12.83;67.03
75891;BME280;64571;47.512;19.054;2023-02-18T06:27:27;100792.22;;;12.82;66.81
75891;BME280;64571;47.512;19.054;2023-02-18T06:30:30;100791.12;;;12.83;66.71
75891;BME280;64571;47.512;19.054;2023-02-18T06:33:33;100799.06;;;12.90;66.40
75891;BME280;64571;47.512;19.054;2023-02-18T06:36:35;100796.06;;;12.86;66.85
75891;BME280;64571;47.512;19.054;2023-02-18T06:39:38;100782.06;;;12.73;67.17
75891;BME280;64571;47.512;19.054;2023-02-18T06:42:41;100792.84;;;12.79;67.46
75891;BME280;64571;47.512;19.054;2023-02-18T06:45:43;100805.12;;;12.78;67.40
75891;BME280;64571;47.512;19.054;2023-02-18T06:48:46;100795.31;;;12.81;67.30
75891;BME280;64571;47.512;19.054;2023-02-18T06:51:51;100778.34;;;12.77;67.14
75891;BME280;64571;47.512;19.054;2023-02-18T06:54:53;100791.31;;;12.87;67.32
75891;BME280;64571;47.512;19.054;2023-02-18T06:57:56;100798.03;;;12.86;67.98
75891;BME280;64571;47.512;19.054;2023-02-18T07:00:59;100793.59;;;12.85;68.49
75891;BME280;64571;47.512;19.054;2023-02-18T07:04:01;100801.22;;;12.79;69.37
75891;BME280;64571;47.512;19.054;2023-02-18T07:07:04;100801.81;;;12.76;70.16
75891;BME280;64571;47.512;19.054;2023-02-18T07:10:07;100813.28;;;12.75;70.50
75891;BME280;64571;47.512;19.054;2023-02-18T07:13:10;100806.03;;;12.74;70.93
75891;BME280;64571;47.512;19.054;2023-02-18T07:16:12;100809.13;;;12.72;71.22
75891;BME280;64571;47.512;19.054;2023-02-18T07:19:15;100794.19;;;12.63;71.36
75891;BME280;64571;47.512;19.054;2023-02-18T07:22:18;100796.16;;;12.62;71.43
75891;BME280;64571;47.512;19.054;2023-02-18T07:25:21;100805.75;;;12.75;71.08
75891;BME280;64571;47.512;19.054;2023-02-18T07:28:24;100801.91;;;12.71;70.95
75891;BME280;64571;47.512;19.054;2023-02-18T07:31:27;100816.22;;;12.83;70.45
75891;BME280;64571;47.512;19.054;2023-02-18T07:34:29;100802.31;;;12.78;70.13
75891;BME280;64571;47.512;19.054;2023-02-18T07:37:32;100819.66;;;12.94;69.90
75891;BME280;64571;47.512;19.054;2023-02-18T07:40:34;100810.84;;;13.06;69.46
75891;BME280;64571;47.512;19.054;2023-02-18T07:43:37;100804.03;;;13.12;69.06
75891;BME280;64571;47.512;19.054;2023-02-18T07:46:40;100819.03;;;13.16;68.70
75891;BME280;64571;47.512;19.054;2023-02-18T07:49:43;100786.72;;;13.10;68.53
75891;BME280;64571;47.512;19.054;2023-02-18T07:52:45;100784.91;;;13.19;67.90
75891;BME280;64571;47.512;19.054;2023-02-18T07:55:48;100806.91;;;13.39;67.24
75891;BME280;64571;47.512;19.054;2023-02-18T07:58:50;100786.22;;;13.40;66.82
75891;BME280;64571;47.512;19.054;2023-02-18T08:01:53;100776.72;;;13.41;66.70
75891;BME280;64571;47.512;19.054;2023-02-18T08:04:56;100796.37;;;13.50;66.50
75891;BME280;64571;47.512;19.054;2023-02-18T08:07:58;100789.34;;;13.53;66.24
75891;BME280;64571;47.512;19.054;2023-02-18T08:11:01;100809.03;;;13.61;66.17
75891;BME280;64571;47.512;19.054;2023-02-18T08:14:18;100780.16;;;13.52;66.27
75891;BME280;64571;47.512;19.054;2023-02-18T08:17:20;100788.22;;;13.67;65.99
75891;BME280;64571;47.512;19.054;2023-02-18T08:20:22;100799.28;;;13.86;65.31
75891;BME280;64571;47.512;19.054;2023-02-18T08:23:25;100805.22;;;13.85;65.10
75891;BME280;64571;47.512;19.054;2023-02-18T08:26:28;100797.25;;;13.92;65.01
75891;BME280;64571;47.512;19.054;2023-02-18T08:29:30;100786.59;;;13.80;64.60
75891;BME280;64571;47.512;19.054;2023-02-18T08:32:34;100806.13;;;13.94;64.50
75891;BME280;64571;47.512;19.054;2023-02-18T08:35:36;100801.91;;;13.97;64.36
75891;BME280;64571;47.512;19.054;2023-02-18T08:38:39;100802.19;;;13.95;64.36
75891;BME280;64571;47.512;19.054;2023-02-18T08:41:42;100807.69;;;14.14;63.87
75891;BME280;64571;47.512;19.054;2023-02-18T08:44:44;100807.16;;;14.12;63.53
75891;BME280;64571;47.512;19.054;2023-02-18T08:47:47;100781.09;;;14.03;63.74
75891;BME280;64571;47.512;19.054;2023-02-18T08:51:18;100808.81;;;14.27;63.67
75891;BME280;64571;47.512;19.054;2023-02-18T08:54:21;100801.84;;;14.38;62.99
75891;BME280;64571;47.512;19.054;2023-02-18T08:57:27;100791.38;;;14.43;62.56
75891;BME280;64571;47.512;19.054;2023-02-18T09:00:30;100807.66;;;14.41;62.86
75891;BME280;64571;47.512;19.054;2023-02-18T09:03:33;100806.84;;;14.55;62.62
75891;BME280;64571;47.512;19.054;2023-02-18T09:06:37;100807.94;;;14.40;62.46
75891;BME280;64571;47.512;19.054;2023-02-18T09:09:39;100811.47;;;14.32;63.12
75891;BME280;64571;47.512;19.054;2023-02-18T09:12:43;100787.47;;;14.17;63.26
75891;BME280;64571;47.512;19.054;2023-02-18T09:15:58;100794.13;;;14.07;64.06
75891;BME280;64571;47.512;19.054;2023-02-18T09:19:01;100783.97;;;14.25;63.85
75891;BME280;64571;47.512;19.054;2023-02-18T09:22:03;100797.19;;;14.33;63.32
75891;BME280;64571;47.512;19.054;2023-02-18T09:25:06;100791.81;;;14.51;62.61
75891;BME280;64571;47.512;19.054;2023-02-18T09:28:08;100795.31;;;14.56;62.74
75891;BME280;64571;47.512;19.054;2023-02-18T09:31:13;100785.69;;;14.49;63.08
75891;BME280;64571;47.512;19.054;2023-02-18T09:34:20;100778.19;;;14.58;63.04
75891;BME280;64571;47.512;19.054;2023-02-18T09:37:22;100760.84;;;14.33;63.47
75891;BME280;64571;47.512;19.054;2023-02-18T09:40:31;100775.22;;;14.40;63.45
75891;BME280;64571;47.512;19.054;2023-02-18T09:43:42;100771.91;;;14.38;63.65
75891;BME280;64571;47.512;19.054;2023-02-18T09:46:54;100773.56;;;14.39;63.71
75891;BME280;64571;47.512;19.054;2023-02-18T09:50:03;100778.19;;;14.58;63.08
75891;BME280;64571;47.512;19.054;2023-02-18T09:53:10;100777.34;;;14.71;62.55
75891;BME280;64571;47.512;19.054;2023-02-18T09:56:27;100770.78;;;14.76;62.28
75891;BME280;64571;47.512;19.054;2023-02-18T09:59:30;100787.84;;;14.88;62.15
75891;BME280;64571;47.512;19.054;2023-02-18T10:02:34;100764.09;;;14.85;61.78
75891;BME280;64571;47.512;19.054;2023-02-18T10:06:03;100771.38;;;14.86;61.56
75891;BME280;64571;47.512;19.054;2023-02-18T10:09:15;100785.25;;;14.91;61.62
75891;BME280;64571;47.512;19.054;2023-02-18T10:12:23;100763.13;;;14.67;61.23
75891;BME280;64571;47.512;19.054;2023-02-18T10:15:28;100777.47;;;14.88;61.20
75891;BME280;64571;47.512;19.054;2023-02-18T10:18:54;100776.13;;;14.86;60.76
75891;BME280;64571;47.512;19.054;2023-02-18T10:22:00;100776.66;;;14.88;60.91
75891;BME280;64571;47.512;19.054;2023-02-18T10:25:05;100770.44;;;14.91;60.67
75891;BME280;64571;47.512;19.054;2023-02-18T10:28:10;100774.19;;;14.86;60.80
75891;BME280;64571;47.512;19.054;2023-02-18T10:31:19;100756.94;;;14.71;60.65
75891;BME280;64571;47.512;19.054;2023-02-18T10:41:09;100767.03;;;15.03;59.26
75891;BME280;64571;47.512;19.054;2023-02-18T10:44:40;100764.75;;;15.05;58.82
75891;BME280;64571;47.512;19.054;2023-02-18T10:51:18;100757.19;;;15.36;58.27
75891;BME280;64571;47.512;19.054;2023-02-18T10:54:26;100746.72;;;15.51;58.12
75891;BME280;64571;47.512;19.054;2023-02-18T10:57:30;100748.50;;;15.47;58.56
75891;BME280;64571;47.512;19.054;2023-02-18T11:00:34;100745.22;;;15.44;59.25
75891;BME280;64571;47.512;19.054;2023-02-18T11:04:07;100746.00;;;15.36;59.58
75891;BME280;64571;47.512;19.054;2023-02-18T11:07:15;100749.94;;;15.35;59.83
75891;BME280;64571;47.512;19.054;2023-02-18T11:10:25;100756.81;;;15.29;60.34
75891;BME280;64571;47.512;19.054;2023-02-18T11:13:30;100753.38;;;15.32;60.43
75891;BME280;64571;47.512;19.054;2023-02-18T11:16:39;100741.75;;;15.16;61.02
75891;BME280;64571;47.512;19.054;2023-02-18T11:19:51;100730.66;;;14.80;62.45
75891;BME280;64571;47.512;19.054;2023-02-18T11:23:20;100710.56;;;14.78;63.07
75891;BME280;64571;47.512;19.054;2023-02-18T11:26:30;100727.91;;;14.89;62.86
75891;BME280;64571;47.512;19.054;2023-02-18T11:29:34;100716.44;;;14.90;62.70
75891;BME280;64571;47.512;19.054;2023-02-18T11:32:37;100711.56;;;15.05;62.61
75891;BME280;64571;47.512;19.054;2023-02-18T11:35:50;100705.53;;;15.20;62.27
75891;BME280;64571;47.512;19.054;2023-02-18T11:39:03;100696.22;;;15.64;61.16
75891;BME280;64571;47.512;19.054;2023-02-18T11:42:12;100691.84;;;15.50;61.16
75891;BME280;64571;47.512;19.054;2023-02-18T11:45:29;100691.53;;;15.60;61.29
75891;BME280;64571;47.512;19.054;2023-02-18T11:48:32;100680.31;;;15.51;61.63
75891;BME280;64571;47.512;19.054;2023-02-18T11:51:35;100678.84;;;15.54;61.81
75891;BME280;64571;47.512;19.054;2023-02-18T11:54:41;100683.44;;;15.50;61.97
75891;BME280;64571;47.512;19.054;2023-02-18T11:57:57;100650.66;;;15.50;61.68
75891;BME280;64571;47.512;19.054;2023-02-18T12:01:02;100655.53;;;15.84;61.00
75891;BME280;64571;47.512;19.054;2023-02-18T12:04:13;100658.63;;;15.65;61.24
75891;BME280;64571;47.512;19.054;2023-02-18T12:10:38;100630.16;;;16.24;58.77
75891;BME280;64571;47.512;19.054;2023-02-18T12:13:52;100630.16;;;16.33;57.99
75891;BME280;64571;47.512;19.054;2023-02-18T12:20:40;100617.28;;;16.06;58.43
75891;BME280;64571;47.512;19.054;2023-02-18T12:23:57;100599.47;;;16.02;58.29
75891;BME280;64571;47.512;19.054;2023-02-18T12:40:26;100584.19;;;16.89;53.32
75891;BME280;64571;47.512;19.054;2023-02-18T12:47:17;100572.03;;;16.51;54.19
75891;BME280;64571;47.512;19.054;2023-02-18T12:57:06;100573.31;;;17.17;52.20
75891;BME280;64571;47.512;19.054;2023-02-18T13:04:14;100565.09;;;17.33;51.63
75891;BME280;64571;47.512;19.054;2023-02-18T13:14:19;100544.88;;;17.19;51.27
75891;BME280;64571;47.512;19.054;2023-02-18T13:17:25;100520.34;;;17.28;51.07
75891;BME280;64571;47.512;19.054;2023-02-18T13:20:36;100535.09;;;17.46;50.91
75891;BME280;64571;47.512;19.054;2023-02-18T13:23:51;100529.63;;;17.50;50.45
75891;BME280;64571;47.512;19.054;2023-02-18T13:27:00;100536.50;;;17.61;50.27
75891;BME280;64571;47.512;19.054;2023-02-18T13:30:32;100521.41;;;17.44;50.39
75891;BME280;64571;47.512;19.054;2023-02-18T13:34:00;100519.63;;;17.40;50.76
75891;BME280;64571;47.512;19.054;2023-02-18T13:40:25;100525.34;;;17.52;50.68
75891;BME280;64571;47.512;19.054;2023-02-18T13:43:35;100515.22;;;17.30;51.26
75891;BME280;64571;47.512;19.054;2023-02-18T13:46:55;100525.69;;;17.21;51.46
75891;BME280;64571;47.512;19.054;2023-02-18T13:49:58;100509.50;;;17.48;50.86
75891;BME280;64571;47.512;19.054;2023-02-18T13:53:20;100507.56;;;17.39;51.20
75891;BME280;64571;47.512;19.054;2023-02-18T13:56:29;100495.56;;;17.30;51.64
75891;BME280;64571;47.512;19.054;2023-02-18T13:59:37;100491.37;;;17.36;51.35
75891;BME280;64571;47.512;19.054;2023-02-18T14:02:59;100484.69;;;17.20;51.62
75891;BME280;64571;47.512;19.054;2023-02-18T14:06:21;100476.22;;;17.08;52.11
75891;BME280;64571;47.512;19.054;2023-02-18T14:21:41;100455.75;;;17.07;53.99
75891;BME280;64571;47.512;19.054;2023-02-18T14:24:48;100441.63;;;17.16;53.74
75891;BME280;64571;47.512;19.054;2023-02-18T14:28:01;100441.75;;;16.99;53.98
75891;BME280;64571;47.512;19.054;2023-02-18T14:34:36;100424.69;;;17.04;54.24
75891;BME280;64571;47.512;19.054;2023-02-18T14:48:27;100427.09;;;17.14;53.81
75891;BME280;64571;47.512;19.054;2023-02-18T14:51:35;100424.09;;;17.19;54.08
75891;BME280;64571;47.512;19.054;2023-02-18T14:54:38;100409.03;;;17.03;54.29
75891;BME280;64571;47.512;19.054;2023-02-18T14:57:50;100400.56;;;16.82;54.83
75891;BME280;64571;47.512;19.054;2023-02-18T15:00:54;100387.16;;;16.58;55.28
75891;BME280;64571;47.512;19.054;2023-02-18T15:03:57;100373.22;;;16.40;55.73
75891;BME280;64571;47.512;19.054;2023-02-18T15:07:04;100370.09;;;16.33;56.09
75891;BME280;64571;47.512;19.054;2023-02-18T15:10:14;100374.22;;;16.36;56.14
75891;BME280;64571;47.512;19.054;2023-02-18T15:13:21;100396.28;;;16.46;56.17
75891;BME280;64571;47.512;19.054;2023-02-18T15:16:32;100384.44;;;15.93;55.34
75891;BME280;64571;47.512;19.054;2023-02-18T15:19:43;100382.84;;;15.75;55.10
75891;BME280;64571;47.512;19.054;2023-02-18T15:22:48;100385.19;;;15.38;55.56
75891;BME280;64571;47.512;19.054;2023-02-18T15:25:52;100380.09;;;15.14;55.96
75891;BME280;64571;47.512;19.054;2023-02-18T15:29:01;100375.81;;;15.00;55.55
75891;BME280;64571;47.512;19.054;2023-02-18T15:32:27;100370.53;;;14.98;55.28
75891;BME280;64571;47.512;19.054;2023-02-18T15:35:31;100384.66;;;14.84;55.39
75891;BME280;64571;47.512;19.054;2023-02-18T15:38:34;100386.63;;;14.75;55.31
75891;BME280;64571;47.512;19.054;2023-02-18T15:41:40;100384.72;;;14.44;56.04
75891;BME280;64571;47.512;19.054;2023-02-18T15:44:46;100364.53;;;14.08;56.69
75891;BME280;64571;47.512;19.054;2023-02-18T15:47:52;100378.97;;;14.01;57.18
75891;BME280;64571;47.512;19.054;2023-02-18T15:50:57;100359.56;;;13.65;57.94
75891;BME280;64571;47.512;19.054;2023-02-18T15:54:19;100375.16;;;13.66;58.32
75891;BME280;64571;47.512;19.054;2023-02-18T15:57:27;100375.87;;;13.49;58.88
75891;BME280;64571;47.512;19.054;2023-02-18T16:00:38;100361.78;;;13.32;59.20
75891;BME280;64571;47.512;19.054;2023-02-18T16:03:45;100386.91;;;13.32;59.45
75891;BME280;64571;47.512;19.054;2023-02-18T16:06:50;100383.63;;;13.30;59.43
75891;BME280;64571;47.512;19.054;2023-02-18T16:13:20;100398.47;;;13.03;59.96
75891;BME280;64571;47.512;19.054;2023-02-18T16:16:29;100392.00;;;12.93;60.13
75891;BME280;64571;47.512;19.054;2023-02-18T16:19:32;100386.22;;;12.90;60.26
75891;BME280;64571;47.512;19.054;2023-02-18T16:22:41;100380.44;;;12.86;60.11
75891;BME280;64571;47.512;19.054;2023-02-18T16:25:48;100387.56;;;12.92;60.16
75891;BME280;64571;47.512;19.054;2023-02-18T16:28:51;100388.88;;;12.95;60.05
75891;BME280;64571;47.512;19.054;2023-02-18T16:31:54;100371.56;;;12.84;60.01
75891;BME280;64571;47.512;19.054;2023-02-18T16:34:57;100382.09;;;12.74;60.40
75891;BME280;64571;47.512;19.054;2023-02-18T16:37:59;100373.66;;;12.65;60.75
75891;BME280;64571;47.512;19.054;2023-02-18T16:41:02;100363.03;;;12.67;60.62
75891;BME280;64571;47.512;19.054;2023-02-18T16:44:12;100348.28;;;12.53;60.74
75891;BME280;64571;47.512;19.054;2023-02-18T16:47:17;100347.75;;;12.51;60.55
75891;BME280;64571;47.512;19.054;2023-02-18T16:50:21;100345.69;;;12.42;60.79
75891;BME280;64571;47.512;19.054;2023-02-18T16:53:24;100346.63;;;12.38;61.00
75891;BME280;64571;47.512;19.054;2023-02-18T16:56:30;100363.56;;;12.41;61.10
75891;BME280;64571;47.512;19.054;2023-02-18T16:59:33;100347.91;;;12.18;61.56
75891;BME280;64571;47.512;19.054;2023-02-18T17:02:36;100375.16;;;12.35;61.32
75891;BME280;64571;47.512;19.054;2023-02-18T17:05:39;100384.84;;;12.24;61.75
75891;BME280;64571;47.512;19.054;2023-02-18T17:08:42;100364.12;;;12.16;61.60
75891;BME280;64571;47.512;19.054;2023-02-18T17:11:46;100379.06;;;12.20;61.73
75891;BME280;64571;47.512;19.054;2023-02-18T17:14:49;100382.97;;;12.19;61.71
75891;BME280;64571;47.512;19.054;2023-02-18T17:17:52;100376.37;;;12.15;61.81
75891;BME280;64571;47.512;19.054;2023-02-18T17:20:54;100371.72;;;12.10;62.07
75891;BME280;64571;47.512;19.054;2023-02-18T17:23:58;100377.41;;;12.05;62.25
75891;BME280;64571;47.512;19.054;2023-02-18T17:27:01;100379.37;;;12.05;62.24
75891;BME280;64571;47.512;19.054;2023-02-18T17:30:04;100386.47;;;11.97;62.41
75891;BME280;64571;47.512;19.054;2023-02-18T17:33:09;100377.28;;;11.97;62.52
75891;BME280;64571;47.512;19.054;2023-02-18T17:36:14;100381.81;;;11.93;62.55
75891;BME280;64571;47.512;19.054;2023-02-18T17:39:17;100379.34;;;11.91;62.70
75891;BME280;64571;47.512;19.054;2023-02-18T17:42:19;100371.44;;;11.84;62.80
75891;BME280;64571;47.512;19.054;2023-02-18T17:45:26;100359.44;;;11.84;62.87
75891;BME280;64571;47.512;19.054;2023-02-18T17:48:33;100376.75;;;11.81;62.88
75891;BME280;64571;47.512;19.054;2023-02-18T17:51:35;100369.28;;;11.62;63.38
75891;BME280;64571;47.512;19.054;2023-02-18T17:54:39;100347.31;;;11.61;63.30
75891;BME280;64571;47.512;19.054;2023-02-18T17:57:42;100346.19;;;11.62;63.50
75891;BME280;64571;47.512;19.054;2023-02-18T18:00:53;100354.00;;;11.60;63.73
75891;BME280;64571;47.512;19.054;2023-02-18T18:03:56;100348.03;;;11.53;63.98
75891;BME280;64571;47.512;19.054;2023-02-18T18:06:58;100351.63;;;11.53;63.97
75891;BME280;64571;47.512;19.054;2023-02-18T18:10:01;100365.25;;;11.55;64.09